createdAt,value
2023-02-06T00:00:48.282Z,53.55
2023-02-06T00:01:48.245Z,53.40
2023-02-06T00:02:48.236Z,52.19
2023-02-06T00:03:48.187Z,52.10
2023-02-06T00:04:48.175Z,51.40
2023-02-06T00:05:48.236Z,50.74
2023-02-06T00:06:48.169Z,51.00
2023-02-06T00:07:48.123Z,52.98
2023-02-06T00:08:48.089Z,50.41
2023-02-06T00:09:48.092Z,51.00
2023-02-06T00:10:48.089Z,53.73
2023-02-06T00:11:48.055Z,52.26
2023-02-06T00:12:48.056Z,51.37
2023-02-06T00:13:48.026Z,53.81
2023-02-06T00:14:47.990Z,50.52
2023-02-06T00:15:48.001Z,51.40
2023-02-06T00:16:47.954Z,51.61
2023-02-06T00:17:48.048Z,50.50
2023-02-06T00:18:47.936Z,48.75
2023-02-06T00:19:47.908Z,48.72
2023-02-06T00:20:47.897Z,45.76
2023-02-06T00:21:47.868Z,50.49
2023-02-06T00:22:47.857Z,46.58
2023-02-06T00:23:47.853Z,48.62
2023-02-06T00:24:47.822Z,49.64
2023-02-06T00:25:47.845Z,49.21
2023-02-06T00:26:47.782Z,46.56
2023-02-06T00:27:47.796Z,49.22
2023-02-06T00:28:47.772Z,47.93
2023-02-06T00:29:47.755Z,48.48
2023-02-06T00:30:47.816Z,48.60
2023-02-06T00:31:47.753Z,48.34
2023-02-06T00:32:47.726Z,48.56
2023-02-06T00:33:47.689Z,45.92
2023-02-06T00:34:47.687Z,44.69
2023-02-06T00:35:47.654Z,43.45
2023-02-06T00:36:47.648Z,46.33
2023-02-06T00:37:47.637Z,42.01
2023-02-06T00:38:47.587Z,42.88
2023-02-06T00:39:48.110Z,40.18
2023-02-06T00:40:47.558Z,43.15
2023-02-06T00:41:47.544Z,39.12
2023-02-06T00:42:47.529Z,37.49
2023-02-06T00:43:47.537Z,36.30
2023-02-06T00:44:49.108Z,36.98
2023-02-06T00:45:47.492Z,36.71
2023-02-06T00:46:47.469Z,37.98
2023-02-06T00:47:47.435Z,34.13
2023-02-06T00:48:47.442Z,31.81
2023-02-06T00:49:47.403Z,35.43
2023-02-06T00:50:47.410Z,37.51
2023-02-06T00:51:47.385Z,33.76
2023-02-06T00:52:47.351Z,33.51
2023-02-06T00:53:49.065Z,32.84
2023-02-06T00:54:47.346Z,33.05
2023-02-06T00:55:47.315Z,33.30
2023-02-06T00:56:47.311Z,31.74
2023-02-06T00:57:47.290Z,31.95
2023-02-06T00:58:47.295Z,32.86
2023-02-06T00:59:47.263Z,32.02
2023-02-06T01:00:48.124Z,31.52
2023-02-06T01:01:47.660Z,34.73
2023-02-06T01:02:47.492Z,33.62
2023-02-06T01:03:48.092Z,35.54
2023-02-06T01:04:47.191Z,37.09
2023-02-06T01:05:47.164Z,36.79
2023-02-06T01:06:47.174Z,35.05
2023-02-06T01:07:47.190Z,34.06
2023-02-06T01:08:47.131Z,34.74
2023-02-06T01:09:47.124Z,30.56
2023-02-06T01:10:47.122Z,29.55
2023-02-06T01:11:47.143Z,32.44
2023-02-06T01:12:47.071Z,32.44
2023-02-06T01:13:47.073Z,30.29
2023-02-06T01:14:47.062Z,33.98
2023-02-06T01:15:48.421Z,33.61
2023-02-06T01:16:47.066Z,33.78
2023-02-06T01:17:47.032Z,35.18
2023-02-06T01:18:47.055Z,33.43
2023-02-06T01:19:47.013Z,29.86
2023-02-06T01:20:47.001Z,32.41
2023-02-06T01:21:47.163Z,34.05
2023-02-06T01:22:46.973Z,34.35
2023-02-06T01:23:47.044Z,32.69
2023-02-06T01:24:46.952Z,35.02
2023-02-06T01:25:46.951Z,36.13
2023-02-06T01:26:46.936Z,33.22
2023-02-06T01:27:46.980Z,37.82
2023-02-06T01:28:46.921Z,36.57
2023-02-06T01:29:46.881Z,34.44
2023-02-06T01:30:46.919Z,35.61
2023-02-06T01:31:46.919Z,34.22
2023-02-06T01:32:46.852Z,34.30
2023-02-06T01:33:46.860Z,31.90
2023-02-06T01:34:46.832Z,35.07
2023-02-06T01:35:46.818Z,34.58
2023-02-06T01:36:46.855Z,36.32
2023-02-06T01:37:46.774Z,34.31
2023-02-06T01:38:46.737Z,35.56
2023-02-06T01:39:46.723Z,33.55
2023-02-06T01:40:47.600Z,39.16
2023-02-06T01:41:46.702Z,32.57
2023-02-06T01:42:46.701Z,33.79
2023-02-06T01:43:46.666Z,31.75
2023-02-06T01:44:46.645Z,33.31
2023-02-06T01:45:46.609Z,33.43
2023-02-06T01:46:46.610Z,34.21
2023-02-06T01:47:46.618Z,33.81
2023-02-06T01:48:47.122Z,32.34
2023-02-06T01:49:46.551Z,33.51
2023-02-06T01:50:46.548Z,30.79
2023-02-06T01:51:46.530Z,32.54
2023-02-06T01:52:46.540Z,31.64
2023-02-06T01:53:46.498Z,35.35
2023-02-06T01:54:46.489Z,33.96
2023-02-06T01:55:46.491Z,34.33
2023-02-06T01:56:46.461Z,34.20
2023-02-06T01:57:46.482Z,35.31
2023-02-06T01:58:46.547Z,33.18
2023-02-06T01:59:46.425Z,31.80
2023-02-06T02:00:46.413Z,33.84
2023-02-06T02:01:46.457Z,36.65
2023-02-06T02:02:46.412Z,36.33
2023-02-06T02:03:46.353Z,32.85
2023-02-06T02:04:46.337Z,34.95
2023-02-06T02:05:46.318Z,36.31
2023-02-06T02:06:46.293Z,36.54
2023-02-06T02:07:46.325Z,40.61
2023-02-06T02:08:46.273Z,36.39
2023-02-06T02:09:46.276Z,35.76
2023-02-06T02:10:46.247Z,37.90
2023-02-06T02:11:46.246Z,36.70
2023-02-06T02:12:46.233Z,37.18
2023-02-06T02:13:46.213Z,38.15
2023-02-06T02:14:46.218Z,37.14
2023-02-06T02:15:46.174Z,39.05
2023-02-06T02:16:46.180Z,35.50
2023-02-06T02:17:46.176Z,35.18
2023-02-06T02:18:46.156Z,36.38
2023-02-06T02:19:46.149Z,38.20
2023-02-06T02:20:46.128Z,34.89
2023-02-06T02:21:46.120Z,37.41
2023-02-06T02:22:46.137Z,33.63
2023-02-06T02:23:46.101Z,34.72
2023-02-06T02:24:46.089Z,36.79
2023-02-06T02:25:46.065Z,37.32
2023-02-06T02:26:46.053Z,32.73
2023-02-06T02:27:46.094Z,32.55
2023-02-06T02:28:46.033Z,34.49
2023-02-06T02:29:46.005Z,35.80
2023-02-06T02:30:46.018Z,38.56
2023-02-06T02:31:46.033Z,36.46
2023-02-06T02:32:45.980Z,37.92
2023-02-06T02:33:45.984Z,38.69
2023-02-06T02:34:45.937Z,36.20
2023-02-06T02:35:45.947Z,36.03
2023-02-06T02:36:45.900Z,38.01
2023-02-06T02:37:45.884Z,37.19
2023-02-06T02:38:46.631Z,36.44
2023-02-06T02:39:45.887Z,36.55
2023-02-06T02:40:45.846Z,38.96
2023-02-06T02:41:45.859Z,37.61
2023-02-06T02:42:45.820Z,37.95
2023-02-06T02:43:45.789Z,35.54
2023-02-06T02:44:45.762Z,37.09
2023-02-06T02:45:45.791Z,35.94
2023-02-06T02:46:45.768Z,38.20
2023-02-06T02:47:45.780Z,35.06
2023-02-06T02:48:45.733Z,35.78
2023-02-06T02:49:45.689Z,36.83
2023-02-06T02:50:45.693Z,34.25
2023-02-06T02:51:45.669Z,34.95
2023-02-06T02:52:45.656Z,35.56
2023-02-06T02:53:45.641Z,35.66
2023-02-06T02:54:45.635Z,37.77
2023-02-06T02:55:45.641Z,37.56
2023-02-06T02:56:45.595Z,34.20
2023-02-06T02:57:45.597Z,35.22
2023-02-06T02:58:45.568Z,33.07
2023-02-06T02:59:45.586Z,34.37
2023-02-06T03:00:45.597Z,35.48
2023-02-06T03:01:45.568Z,32.68
2023-02-06T03:02:45.541Z,34.02
2023-02-06T03:03:45.568Z,34.19
2023-02-06T03:04:45.508Z,32.97
2023-02-06T03:05:45.513Z,32.84
2023-02-06T03:06:45.495Z,31.95
2023-02-06T03:07:45.491Z,32.92
2023-02-06T03:08:45.513Z,30.08
2023-02-06T03:09:46.013Z,33.28
2023-02-06T03:10:45.418Z,32.54
2023-02-06T03:11:45.430Z,33.56
2023-02-06T03:12:45.385Z,34.85
2023-02-06T03:13:45.395Z,33.80
2023-02-06T03:14:45.373Z,33.91
2023-02-06T03:15:45.383Z,33.98
2023-02-06T03:16:45.380Z,34.56
2023-02-06T03:17:45.329Z,35.48
2023-02-06T03:18:45.295Z,36.59
2023-02-06T03:19:45.298Z,35.49
2023-02-06T03:20:45.273Z,35.26
2023-02-06T03:21:45.271Z,36.16
2023-02-06T03:22:45.266Z,36.07
2023-02-06T03:23:45.290Z,40.08
2023-02-06T03:24:45.214Z,36.21
2023-02-06T03:25:45.195Z,34.25
2023-02-06T03:26:45.232Z,34.53
2023-02-06T03:27:45.217Z,34.94
2023-02-06T03:28:45.179Z,35.22
2023-02-06T03:29:45.187Z,35.52
2023-02-06T03:30:45.307Z,35.78
2023-02-06T03:31:45.171Z,35.65
2023-02-06T03:32:45.182Z,37.79
2023-02-06T03:33:45.255Z,38.30
2023-02-06T03:34:45.080Z,39.04
2023-02-06T03:35:45.087Z,34.91
2023-02-06T03:36:45.106Z,38.63
2023-02-06T03:37:45.049Z,37.18
2023-02-06T03:38:45.091Z,37.91
2023-02-06T03:39:45.024Z,39.78
2023-02-06T03:40:45.019Z,39.29
2023-02-06T03:41:45.000Z,41.30
2023-02-06T03:42:44.979Z,37.97
2023-02-06T03:43:45.006Z,39.11
2023-02-06T03:44:45.015Z,42.40
2023-02-06T03:45:44.984Z,39.69
2023-02-06T03:46:44.932Z,41.60
2023-02-06T03:47:44.927Z,38.04
2023-02-06T03:48:44.894Z,38.66
2023-02-06T03:49:45.179Z,38.54
2023-02-06T03:50:44.879Z,40.42
2023-02-06T03:51:44.872Z,37.19
2023-02-06T03:52:44.878Z,38.18
2023-02-06T03:53:44.841Z,42.20
2023-02-06T03:54:45.041Z,38.06
2023-02-06T03:55:44.813Z,37.61
2023-02-06T03:56:44.832Z,36.98
2023-02-06T03:57:44.801Z,34.95
2023-02-06T03:58:44.802Z,36.75
2023-02-06T03:59:44.780Z,36.52
2023-02-06T04:00:44.750Z,36.20
2023-02-06T04:01:44.753Z,34.91
2023-02-06T04:02:44.738Z,37.86
2023-02-06T04:03:44.727Z,35.48
2023-02-06T04:04:44.712Z,34.26
2023-02-06T04:05:44.748Z,34.97
2023-02-06T04:06:44.696Z,37.45
2023-02-06T04:07:44.691Z,38.94
2023-02-06T04:08:44.688Z,38.25
2023-02-06T04:09:44.701Z,37.70
2023-02-06T04:10:44.677Z,37.98
2023-02-06T04:11:44.657Z,40.56
2023-02-06T04:12:44.615Z,38.51
2023-02-06T04:13:44.629Z,36.94
2023-02-06T04:14:44.641Z,36.53
2023-02-06T04:15:44.573Z,38.90
2023-02-06T04:16:44.615Z,35.41
2023-02-06T04:17:58.941Z,36.54
2023-02-06T04:18:45.624Z,36.84
2023-02-06T04:19:44.640Z,37.10
2023-02-06T04:20:44.609Z,37.80
2023-02-06T04:21:44.642Z,36.75
2023-02-06T04:22:44.594Z,35.77
2023-02-06T04:23:44.587Z,38.99
2023-02-06T04:24:44.680Z,37.67
2023-02-06T04:25:44.564Z,34.91
2023-02-06T04:26:44.570Z,36.23
2023-02-06T04:27:44.579Z,36.45
2023-02-06T04:28:44.526Z,37.44
2023-02-06T04:29:44.530Z,38.25
2023-02-06T04:30:44.558Z,35.62
2023-02-06T04:31:44.501Z,34.71
2023-02-06T04:32:44.483Z,36.51
2023-02-06T04:33:44.476Z,35.80
2023-02-06T04:34:44.521Z,36.61
2023-02-06T04:35:44.460Z,31.03
2023-02-06T04:36:44.461Z,34.58
2023-02-06T04:37:44.459Z,35.08
2023-02-06T04:38:44.438Z,32.44
2023-02-06T04:39:44.494Z,32.48
2023-02-06T04:40:44.425Z,30.63
2023-02-06T04:41:44.399Z,29.07
2023-02-06T04:42:44.465Z,29.76
2023-02-06T04:43:44.412Z,29.62
2023-02-06T04:44:44.389Z,30.89
2023-02-06T04:45:44.385Z,34.01
2023-02-06T04:46:44.427Z,31.61
2023-02-06T04:47:44.375Z,30.50
2023-02-06T04:48:44.344Z,30.67
2023-02-06T04:49:44.345Z,31.73
2023-02-06T04:50:44.701Z,28.68
2023-02-06T04:51:44.331Z,31.55
2023-02-06T04:52:44.334Z,31.64
2023-02-06T04:53:44.330Z,32.31
2023-02-06T04:54:44.321Z,34.54
2023-02-06T04:55:44.320Z,33.85
2023-02-06T04:56:44.288Z,29.43
2023-02-06T04:57:44.292Z,31.55
2023-02-06T04:58:44.293Z,30.63
2023-02-06T04:59:44.275Z,30.88
2023-02-06T05:00:44.297Z,32.15
2023-02-06T05:01:44.319Z,30.91
2023-02-06T05:02:44.264Z,30.93
2023-02-06T05:03:44.231Z,30.33
2023-02-06T05:04:44.236Z,30.75
2023-02-06T05:05:44.214Z,28.61
2023-02-06T05:06:44.203Z,27.28
2023-02-06T05:07:44.192Z,29.44
2023-02-06T05:08:44.188Z,27.21
2023-02-06T05:09:44.203Z,28.66
2023-02-06T05:10:44.193Z,27.49
2023-02-06T05:11:44.173Z,29.39
2023-02-06T05:12:44.205Z,29.75
2023-02-06T05:13:44.158Z,30.76
2023-02-06T05:14:44.165Z,29.57
2023-02-06T05:15:44.149Z,29.24
2023-02-06T05:16:44.111Z,28.16
2023-02-06T05:17:44.105Z,33.55
2023-02-06T05:18:44.115Z,38.55
2023-02-06T05:19:44.109Z,30.94
2023-02-06T05:20:44.129Z,31.27
2023-02-06T05:21:44.105Z,32.93
2023-02-06T05:22:44.083Z,30.59
2023-02-06T05:23:44.050Z,28.02
2023-02-06T05:24:44.048Z,32.28
2023-02-06T05:25:44.064Z,26.04
2023-02-06T05:26:44.037Z,30.65
2023-02-06T05:27:44.022Z,25.50
2023-02-06T05:28:44.010Z,28.17
2023-02-06T05:29:43.987Z,31.18
2023-02-06T05:30:44.039Z,29.28
2023-02-06T05:31:44.054Z,28.14
2023-02-06T05:32:43.961Z,35.10
2023-02-06T05:33:43.964Z,27.14
2023-02-06T05:34:43.945Z,30.12
2023-02-06T05:35:43.955Z,25.90
2023-02-06T05:36:43.925Z,34.31
2023-02-06T05:37:43.946Z,32.40
2023-02-06T05:38:44.718Z,34.44
2023-02-06T05:39:43.917Z,31.65
2023-02-06T05:40:43.910Z,31.51
2023-02-06T05:41:43.883Z,37.04
2023-02-06T05:42:43.888Z,30.96
2023-02-06T05:43:43.872Z,31.53
2023-02-06T05:44:43.869Z,28.92
2023-02-06T05:45:43.876Z,32.46
2023-02-06T05:46:43.845Z,31.03
2023-02-06T05:47:43.821Z,30.57
2023-02-06T05:48:43.845Z,31.63
2023-02-06T05:49:43.810Z,28.24
2023-02-06T05:50:43.806Z,36.69
2023-02-06T05:51:43.797Z,33.18
2023-02-06T05:52:43.778Z,30.33
2023-02-06T05:53:43.791Z,33.03
2023-02-06T05:54:43.768Z,28.78
2023-02-06T05:55:43.767Z,29.13
2023-02-06T05:56:43.752Z,27.09
2023-02-06T05:57:43.740Z,26.23
2023-02-06T05:58:43.731Z,25.33
2023-02-06T05:59:43.722Z,28.50
2023-02-06T06:00:43.709Z,30.25
2023-02-06T06:01:43.714Z,28.94
2023-02-06T06:02:43.713Z,29.86
2023-02-06T06:03:43.711Z,31.88
2023-02-06T06:04:44.242Z,35.20
2023-02-06T06:05:43.676Z,28.27
2023-02-06T06:06:43.712Z,29.11
2023-02-06T06:07:43.676Z,26.84
2023-02-06T06:08:43.655Z,28.23
2023-02-06T06:09:43.663Z,25.86
2023-02-06T06:10:43.642Z,27.59
2023-02-06T06:11:43.652Z,26.70
2023-02-06T06:12:43.618Z,25.97
2023-02-06T06:13:43.607Z,26.32
2023-02-06T06:14:43.625Z,29.03
2023-02-06T06:15:43.645Z,30.81
2023-02-06T06:16:43.600Z,31.06
2023-02-06T06:17:43.570Z,28.98
2023-02-06T06:18:43.576Z,28.56
2023-02-06T06:19:43.584Z,27.37
2023-02-06T06:20:43.592Z,30.28
2023-02-06T06:21:43.570Z,27.67
2023-02-06T06:22:43.549Z,29.93
2023-02-06T06:23:43.545Z,30.88
2023-02-06T06:24:44.212Z,37.69
2023-02-06T06:25:43.642Z,34.11
2023-02-06T06:26:43.637Z,30.70
2023-02-06T06:27:43.701Z,34.55
2023-02-06T06:28:43.499Z,33.61
2023-02-06T06:30:43.618Z,26.55
2023-02-06T06:31:43.470Z,0.00
2023-02-06T06:32:43.441Z,0.00
2023-02-06T06:33:43.578Z,0.00
2023-02-06T06:34:43.481Z,0.00
2023-02-06T06:35:43.458Z,0.00
2023-02-06T06:36:43.526Z,0.00
2023-02-06T06:37:43.413Z,0.00
2023-02-06T06:38:43.437Z,0.00
2023-02-06T06:39:43.462Z,0.00
2023-02-06T06:40:43.481Z,0.00
2023-02-06T06:41:43.483Z,0.00
2023-02-06T06:42:43.499Z,0.00
2023-02-06T06:43:43.503Z,0.00
2023-02-06T06:44:43.506Z,0.00
2023-02-06T06:45:43.564Z,0.00
2023-02-06T06:46:44.307Z,0.00
2023-02-06T06:47:43.559Z,0.00
2023-02-06T06:48:43.692Z,0.00
2023-02-06T06:49:46.274Z,0.00
2023-02-06T06:50:43.597Z,25.15
2023-02-06T06:51:44.247Z,31.12
2023-02-06T06:52:43.630Z,21.98
2023-02-06T06:53:44.411Z,25.00
2023-02-06T06:54:43.849Z,25.00
2023-02-06T06:55:43.712Z,24.65
2023-02-06T06:56:43.698Z,26.29
2023-02-06T06:57:43.694Z,26.43
2023-02-06T06:58:44.646Z,26.35
2023-02-06T06:59:44.222Z,20.81
2023-02-06T07:00:44.257Z,16.10
2023-02-06T07:01:43.786Z,13.44
2023-02-06T07:02:44.800Z,3.51
2023-02-06T07:03:43.692Z,25.00
2023-02-06T07:04:43.730Z,29.30
2023-02-06T07:05:43.737Z,27.76
2023-02-06T07:06:43.818Z,36.29
2023-02-06T07:07:43.735Z,40.61
2023-02-06T07:08:43.693Z,30.83
2023-02-06T07:09:44.294Z,27.15
2023-02-06T07:10:43.878Z,30.43
2023-02-06T07:11:43.722Z,35.43
2023-02-06T07:12:44.293Z,44.99
2023-02-06T07:13:43.759Z,42.06
2023-02-06T07:14:43.754Z,32.41
2023-02-06T07:15:43.738Z,32.68
2023-02-06T07:16:43.899Z,37.65
2023-02-06T07:17:43.828Z,44.97
2023-02-06T07:18:43.732Z,49.82
2023-02-06T07:19:43.832Z,64.36
2023-02-06T07:20:43.779Z,85.21
2023-02-06T07:21:43.743Z,70.86
2023-02-06T07:22:43.792Z,46.47
2023-02-06T07:23:43.742Z,35.51
2023-02-06T07:24:44.749Z,26.18
2023-02-06T07:25:46.763Z,27.98
2023-02-06T07:26:44.743Z,25.00
2023-02-06T07:27:43.805Z,26.66
2023-02-06T07:28:51.001Z,25.00
2023-02-06T07:29:43.784Z,25.03
2023-02-06T07:30:44.776Z,25.74
2023-02-06T07:31:43.794Z,29.31
2023-02-06T07:32:43.828Z,21.07
2023-02-06T07:33:43.984Z,13.06
2023-02-06T07:34:43.768Z,25.06
2023-02-06T07:35:43.848Z,29.42
2023-02-06T07:36:43.770Z,25.00
2023-02-06T07:37:43.821Z,35.01
2023-02-06T07:38:43.791Z,26.52
2023-02-06T07:39:43.759Z,25.00
2023-02-06T07:40:45.383Z,25.51
2023-02-06T07:41:43.911Z,26.56
2023-02-06T07:42:43.824Z,24.72
2023-02-06T07:43:44.027Z,28.90
2023-02-06T07:44:43.808Z,26.62
2023-02-06T07:45:43.806Z,30.34
2023-02-06T07:46:43.772Z,26.18
2023-02-06T07:47:43.799Z,33.50
2023-02-06T07:48:43.839Z,11.98
2023-02-06T07:49:43.849Z,0.00
2023-02-06T07:50:43.974Z,0.00
2023-02-06T07:51:43.812Z,0.00
2023-02-06T07:52:43.857Z,0.00
2023-02-06T07:53:43.829Z,0.00
2023-02-06T07:54:43.837Z,4.07
2023-02-06T07:55:44.764Z,27.46
2023-02-06T07:56:43.851Z,54.82
2023-02-06T07:57:43.999Z,100.78
2023-02-06T07:58:43.891Z,147.91
2023-02-06T07:59:43.891Z,150.06
2023-02-06T08:00:45.865Z,150.36
2023-02-06T08:01:44.070Z,141.18
2023-02-06T08:02:43.917Z,139.08
2023-02-06T08:03:44.777Z,217.34
2023-02-06T08:04:44.076Z,233.49
2023-02-06T08:05:44.821Z,261.56
2023-02-06T08:06:43.968Z,278.74
2023-02-06T08:07:44.206Z,279.52
2023-02-06T08:08:44.320Z,284.34
2023-02-06T08:09:43.992Z,299.90
2023-02-06T08:10:44.782Z,326.59
2023-02-06T08:11:44.049Z,367.39
2023-02-06T08:12:44.011Z,282.19
2023-02-06T08:13:44.087Z,295.78
2023-02-06T08:14:44.094Z,320.89
2023-02-06T08:15:44.675Z,357.38
2023-02-06T08:16:45.231Z,407.28
2023-02-06T08:17:44.090Z,387.00
2023-02-06T08:18:44.075Z,355.90
2023-02-06T08:19:44.055Z,330.91
2023-02-06T08:20:44.062Z,302.96
2023-02-06T08:21:44.217Z,282.68
2023-02-06T08:22:44.093Z,268.73
2023-02-06T08:23:44.056Z,250.85
2023-02-06T08:24:44.850Z,251.02
2023-02-06T08:25:44.281Z,239.42
2023-02-06T08:26:44.127Z,185.63
2023-02-06T08:27:44.110Z,114.77
2023-02-06T08:28:44.215Z,79.68
2023-02-06T08:29:44.084Z,85.20
2023-02-06T08:30:44.172Z,140.06
2023-02-06T08:31:44.142Z,157.24
2023-02-06T08:32:44.219Z,159.23
2023-02-06T08:33:44.081Z,173.74
2023-02-06T08:34:44.587Z,187.09
2023-02-06T08:35:44.082Z,188.97
2023-02-06T08:36:44.191Z,204.57
2023-02-06T08:37:44.081Z,213.56
2023-02-06T08:38:44.325Z,223.76
2023-02-06T08:39:44.094Z,226.68
2023-02-06T08:40:44.119Z,234.06
2023-02-06T08:41:44.085Z,230.69
2023-02-06T08:42:44.815Z,238.67
2023-02-06T08:43:44.373Z,244.69
2023-02-06T08:44:44.807Z,244.32
2023-02-06T08:45:44.832Z,250.00
2023-02-06T08:46:44.761Z,249.80
2023-02-06T08:47:44.132Z,250.00
2023-02-06T08:48:44.060Z,249.40
2023-02-06T08:49:44.777Z,249.81
2023-02-06T08:50:44.073Z,248.43
2023-02-06T08:51:44.790Z,249.99
2023-02-06T08:52:44.035Z,245.35
2023-02-06T08:53:44.066Z,241.59
2023-02-06T08:54:44.042Z,242.22
2023-02-06T08:55:44.004Z,241.09
2023-02-06T08:56:43.983Z,237.80
2023-02-06T08:57:44.089Z,236.24
2023-02-06T08:58:43.942Z,236.67
2023-02-06T08:59:44.329Z,320.79
2023-02-06T09:00:44.027Z,282.94
2023-02-06T09:01:43.993Z,253.20
2023-02-06T09:02:44.005Z,226.46
2023-02-06T09:03:43.888Z,215.31
2023-02-06T09:04:43.903Z,217.35
2023-02-06T09:05:43.963Z,211.98
2023-02-06T09:06:43.924Z,212.07
2023-02-06T09:07:44.788Z,208.73
2023-02-06T09:08:43.829Z,206.82
2023-02-06T09:09:43.838Z,206.57
2023-02-06T09:10:43.817Z,209.38
2023-02-06T09:11:43.800Z,209.54
2023-02-06T09:12:43.797Z,209.14
2023-02-06T09:13:43.772Z,207.92
2023-02-06T09:14:43.760Z,203.64
2023-02-06T09:15:43.847Z,205.25
2023-02-06T09:16:43.953Z,202.98
2023-02-06T09:17:44.291Z,202.67
2023-02-06T09:18:43.699Z,200.96
2023-02-06T09:19:43.692Z,201.32
2023-02-06T09:20:43.687Z,200.79
2023-02-06T09:21:43.646Z,203.93
2023-02-06T09:22:43.879Z,203.57
2023-02-06T09:23:43.627Z,202.08
2023-02-06T09:24:43.730Z,202.43
2023-02-06T09:25:43.572Z,203.29
2023-02-06T09:26:58.598Z,202.28
2023-02-06T09:27:44.582Z,202.41
2023-02-06T09:29:43.862Z,202.55
2023-02-06T09:30:43.845Z,199.66
2023-02-06T09:31:43.857Z,188.66
2023-02-06T09:32:43.862Z,189.78
2023-02-06T09:33:43.792Z,170.79
2023-02-06T09:34:43.789Z,164.07
2023-02-06T09:35:43.751Z,158.84
2023-02-06T09:36:43.707Z,160.57
2023-02-06T09:37:43.999Z,167.79
2023-02-06T09:38:43.862Z,175.24
2023-02-06T09:39:43.755Z,154.53
2023-02-06T09:40:43.829Z,158.81
2023-02-06T09:41:43.668Z,150.79
2023-02-06T09:42:43.670Z,146.26
2023-02-06T09:43:43.748Z,143.95
2023-02-06T09:44:43.686Z,139.62
2023-02-06T09:45:43.643Z,133.98
2023-02-06T09:46:43.682Z,135.13
2023-02-06T09:47:45.174Z,133.23
2023-02-06T09:48:43.680Z,139.66
2023-02-06T09:49:43.634Z,141.85
2023-02-06T09:50:43.649Z,138.35
2023-02-06T09:51:43.651Z,136.12
2023-02-06T09:52:43.644Z,122.67
2023-02-06T09:53:43.603Z,129.14
2023-02-06T09:54:43.585Z,111.89
2023-02-06T09:55:43.592Z,114.07
2023-02-06T09:56:43.612Z,119.84
2023-02-06T09:58:43.646Z,112.93
2023-02-06T10:01:43.852Z,130.82
2023-02-06T10:02:43.559Z,129.34
2023-02-06T10:03:43.642Z,139.60
2023-02-06T10:04:43.534Z,146.33
2023-02-06T10:05:43.518Z,147.67
2023-02-06T10:06:43.604Z,143.47
2023-02-06T10:07:43.505Z,147.90
2023-02-06T12:05:43.742Z,127.56
2023-02-06T12:06:43.820Z,126.33
2023-02-06T12:07:43.823Z,129.45
2023-02-06T12:08:43.791Z,131.10
2023-02-06T12:09:43.727Z,133.59
2023-02-06T12:10:43.769Z,139.26
2023-02-06T12:11:43.739Z,143.89
2023-02-06T12:12:43.758Z,149.42
2023-02-06T12:13:43.795Z,153.23
2023-02-06T12:14:43.826Z,159.33
2023-02-06T12:15:46.988Z,162.75
2023-02-06T12:16:43.809Z,162.92
2023-02-06T12:17:43.760Z,164.40
2023-02-06T12:18:43.721Z,168.00
2023-02-06T12:19:43.735Z,176.61
2023-02-06T12:20:43.723Z,187.17
2023-02-06T12:21:43.824Z,192.32
2023-02-06T12:22:43.739Z,197.26
2023-02-06T12:23:43.718Z,202.08
2023-02-06T12:24:43.728Z,207.91
2023-02-06T12:25:43.796Z,215.35
2023-02-06T12:26:43.782Z,219.53
2023-02-06T12:27:43.758Z,225.71
2023-02-06T12:28:45.298Z,230.49
2023-02-06T12:29:43.686Z,234.12
2023-02-06T12:30:44.789Z,235.81
2023-02-06T12:31:43.738Z,238.99
2023-02-06T12:32:43.779Z,240.71
2023-02-06T12:33:43.747Z,243.99
2023-02-06T12:34:43.648Z,245.60
2023-02-06T12:35:43.658Z,247.26
2023-02-06T12:36:43.735Z,250.00
2023-02-06T12:37:43.670Z,250.13
2023-02-06T12:38:43.645Z,250.00
2023-02-06T12:39:43.646Z,250.00
2023-02-06T12:40:43.674Z,250.07
2023-02-06T12:41:43.797Z,250.36
2023-02-06T12:42:43.722Z,251.35
2023-02-06T12:43:43.745Z,253.41
2023-02-06T12:44:43.652Z,257.10
2023-02-06T12:45:43.613Z,250.27
2023-02-06T12:46:43.626Z,250.00
2023-02-06T12:47:44.346Z,249.96
2023-02-06T12:48:43.556Z,250.03
2023-02-06T12:49:44.358Z,250.22
2023-02-06T12:50:43.556Z,250.81
2023-02-06T12:51:43.546Z,251.62
2023-02-06T12:52:43.585Z,247.64
2023-02-06T12:53:43.531Z,248.58
2023-02-06T12:54:43.532Z,248.75
2023-02-06T12:55:43.502Z,249.52
2023-02-06T12:56:43.513Z,251.10
2023-02-06T12:57:43.558Z,250.44
2023-02-06T12:58:43.618Z,252.35
2023-02-06T12:59:56.659Z,249.63
2023-02-06T13:00:44.489Z,249.75
2023-02-06T13:01:43.501Z,250.15
2023-02-06T13:02:43.527Z,250.87
2023-02-06T13:03:43.452Z,252.25
2023-02-06T13:04:43.494Z,254.70
2023-02-06T13:05:43.508Z,249.82
2023-02-06T13:06:43.449Z,249.72
2023-02-06T13:07:49.314Z,249.80
2023-02-06T13:08:44.414Z,249.85
2023-02-06T13:09:43.426Z,249.96
2023-02-06T13:10:44.352Z,250.39
2023-02-06T13:11:44.358Z,250.65
2023-02-06T13:12:43.448Z,251.51
2023-02-06T13:13:43.416Z,249.34
2023-02-06T13:14:43.362Z,249.79
2023-02-06T13:15:43.387Z,249.05
2023-02-06T13:16:43.334Z,249.65
2023-02-06T13:17:43.409Z,249.74
2023-02-06T13:18:43.342Z,250.00
2023-02-06T13:19:43.362Z,249.35
2023-02-06T13:20:43.298Z,250.00
2023-02-06T13:21:43.408Z,249.81
2023-02-06T13:23:43.312Z,249.36
2023-02-06T13:24:43.335Z,249.08
2023-02-06T13:25:43.487Z,249.35
2023-02-06T13:26:43.901Z,248.85
2023-02-06T13:27:43.415Z,248.93
2023-02-06T13:28:43.430Z,249.05
2023-02-06T13:29:43.418Z,249.17
2023-02-06T13:30:43.485Z,249.60
2023-02-06T13:31:43.355Z,250.36
2023-02-06T13:32:43.382Z,250.00
2023-02-06T13:33:43.340Z,249.58
2023-02-06T13:34:43.963Z,249.76
2023-02-06T13:35:43.343Z,248.83
2023-02-06T13:36:43.397Z,249.41
2023-02-06T13:37:43.313Z,249.04
2023-02-06T13:38:43.306Z,248.91
2023-02-06T13:39:43.358Z,248.78
2023-02-06T13:40:43.353Z,247.69
2023-02-06T13:41:43.878Z,249.18
2023-02-06T13:42:43.396Z,249.18
2023-02-06T13:43:43.411Z,249.29
2023-02-06T13:44:43.350Z,249.27
2023-02-06T13:46:43.901Z,248.96
2023-02-06T13:47:43.323Z,249.21
2023-02-06T13:48:46.353Z,248.81
2023-02-06T13:49:43.312Z,249.21
2023-02-06T13:50:43.388Z,248.66
2023-02-06T13:51:43.910Z,249.40
2023-02-06T13:52:43.463Z,249.07
2023-02-06T13:53:43.530Z,247.12
2023-02-06T13:54:43.478Z,248.44
2023-02-06T13:55:43.477Z,247.11
2023-02-06T13:56:43.903Z,247.93
2023-02-06T13:57:43.432Z,247.61
2023-02-06T13:58:43.387Z,247.86
2023-02-06T13:59:43.224Z,248.07
2023-02-06T14:01:43.229Z,245.81
2023-02-06T14:02:43.186Z,246.71
2023-02-06T14:03:43.114Z,246.70
2023-02-06T14:04:43.131Z,247.20
2023-02-06T14:05:43.176Z,246.62
2023-02-06T14:06:43.136Z,247.31
2023-02-06T14:07:43.097Z,246.33
2023-02-06T14:08:43.079Z,247.13
2023-02-06T14:09:43.980Z,246.41
2023-02-06T14:11:43.060Z,246.85
2023-02-06T14:12:43.032Z,245.85
2023-02-06T14:13:43.042Z,246.61
2023-02-06T14:14:43.026Z,247.19
2023-02-06T14:15:43.065Z,245.21
2023-02-06T14:16:42.996Z,244.89
2023-02-06T14:17:42.973Z,246.82
2023-02-06T14:18:42.968Z,245.74
2023-02-06T14:19:43.013Z,246.24
2023-02-06T14:20:42.982Z,245.52
2023-02-06T14:21:42.935Z,246.01
2023-02-06T14:22:42.939Z,244.61
2023-02-06T14:23:44.684Z,245.64
2023-02-06T14:25:42.940Z,245.03
2023-02-06T14:26:42.947Z,244.69
2023-02-06T14:27:42.952Z,244.64
2023-02-06T14:28:42.925Z,245.28
2023-02-06T14:29:42.877Z,244.91
2023-02-06T14:30:42.915Z,244.27
2023-02-06T14:31:45.723Z,244.43
2023-02-06T14:32:42.862Z,245.72
2023-02-06T14:33:42.848Z,243.32
2023-02-06T14:34:42.936Z,244.40
2023-02-06T14:35:42.852Z,244.62
2023-02-06T14:36:42.868Z,244.36
2023-02-06T14:37:42.826Z,244.57
2023-02-06T14:38:42.789Z,244.35
2023-02-06T14:39:42.799Z,244.11
2023-02-06T14:40:42.930Z,244.07
2023-02-06T14:41:42.777Z,243.91
2023-02-06T14:42:42.763Z,242.83
2023-02-06T14:43:42.729Z,243.02
2023-02-06T14:44:42.750Z,243.58
2023-02-06T14:45:43.337Z,243.39
2023-02-06T14:46:42.796Z,244.25
2023-02-06T14:47:42.735Z,243.70
2023-02-06T14:48:43.396Z,242.42
2023-02-06T14:49:42.855Z,243.19
2023-02-06T14:50:42.711Z,243.34
2023-02-06T14:51:42.714Z,241.47